createdAt,value
2023-03-21T00:02:53.075Z,7.10
2023-03-21T00:06:15.044Z,7.10
2023-03-21T00:09:37.025Z,7.00
2023-03-21T00:12:59.057Z,7.10
2023-03-21T00:16:23.145Z,7.10
2023-03-21T00:19:54.614Z,7.20
2023-03-21T00:23:16.692Z,7.30
2023-03-21T00:26:38.655Z,7.30
2023-03-21T00:30:00.935Z,7.30
2023-03-21T00:33:23.158Z,7.30
2023-03-21T00:36:47.692Z,7.30
2023-03-21T00:40:23.035Z,7.30
2023-03-21T00:43:47.628Z,7.10
2023-03-21T00:47:13.391Z,7.10
2023-03-21T00:50:36.400Z,7.10
2023-03-21T00:53:59.224Z,7.20
2023-03-21T00:57:37.470Z,7.20
2023-03-21T01:01:02.702Z,7.20
2023-03-21T01:04:26.926Z,7.10
2023-03-21T01:07:53.393Z,7.00
2023-03-21T01:11:19.695Z,6.90
2023-03-21T01:14:41.642Z,6.70
2023-03-21T01:18:04.096Z,6.60
2023-03-21T01:21:26.557Z,6.50
2023-03-21T01:25:05.706Z,6.40
2023-03-21T01:28:31.106Z,6.40
2023-03-21T01:31:53.414Z,6.30
2023-03-21T01:35:15.683Z,6.30
2023-03-21T01:38:37.707Z,6.30
2023-03-21T01:41:59.740Z,6.20
2023-03-21T01:46:21.284Z,6.20
2023-03-21T01:50:04.185Z,6.10
2023-03-21T01:53:35.136Z,6.00
2023-03-21T01:56:59.222Z,5.80
2023-03-21T02:00:26.758Z,5.80
2023-03-21T02:04:03.682Z,5.70
2023-03-21T02:07:41.856Z,5.70
2023-03-21T02:11:04.441Z,5.70
2023-03-21T02:14:35.944Z,5.80
2023-03-21T02:18:28.343Z,5.80
2023-03-21T02:22:12.204Z,5.80
2023-03-21T02:25:55.936Z,5.80
2023-03-21T02:29:31.239Z,6.00
2023-03-21T02:33:31.666Z,5.90
2023-03-21T02:37:36.788Z,5.80
2023-03-21T02:41:13.234Z,5.80
2023-03-21T02:45:01.700Z,6.00
2023-03-21T02:48:48.141Z,6.10
2023-03-21T02:52:31.715Z,6.20
2023-03-21T02:56:00.522Z,6.30
2023-03-21T02:59:25.348Z,6.40
2023-03-21T03:03:02.645Z,6.40
2023-03-21T03:06:58.014Z,6.30
2023-03-21T03:10:32.232Z,6.20
2023-03-21T03:14:38.352Z,6.10
2023-03-21T03:18:23.543Z,6.10
2023-03-21T03:21:55.708Z,6.00
2023-03-21T03:25:35.994Z,5.80
2023-03-21T03:29:14.752Z,5.60
2023-03-21T03:32:45.084Z,5.60
2023-03-21T03:36:21.409Z,5.80
2023-03-21T03:40:00.462Z,6.20
2023-03-21T03:43:28.392Z,6.30
2023-03-21T03:47:02.055Z,6.40
2023-03-21T03:50:30.229Z,6.40
2023-03-21T03:54:00.775Z,6.50
2023-03-21T03:57:27.195Z,6.50
2023-03-21T04:00:51.444Z,6.60
2023-03-21T04:04:16.761Z,6.60
2023-03-21T04:07:39.711Z,6.60
2023-03-21T04:11:02.887Z,6.60
2023-03-21T04:14:44.041Z,6.50
2023-03-21T04:18:07.925Z,6.40
2023-03-21T04:21:30.401Z,6.20
2023-03-21T04:24:53.290Z,6.20
2023-03-21T04:28:15.647Z,6.00
2023-03-21T04:31:58.925Z,5.90
2023-03-21T04:35:21.708Z,5.90
2023-03-21T04:38:48.631Z,5.90
2023-03-21T04:42:12.568Z,5.90
2023-03-21T04:45:34.687Z,5.90
2023-03-21T04:48:57.019Z,6.10
2023-03-21T04:52:19.205Z,6.00
2023-03-21T04:55:42.023Z,5.90
2023-03-21T04:59:10.646Z,5.90
2023-03-21T05:02:32.672Z,5.80
2023-03-21T05:05:54.843Z,5.90
2023-03-21T05:09:16.902Z,6.00
2023-03-21T05:12:39.367Z,6.00
2023-03-21T05:16:01.379Z,6.00
2023-03-21T05:19:40.503Z,6.30
2023-03-21T05:23:02.788Z,6.50
2023-03-21T05:26:28.025Z,6.60
2023-03-21T05:30:17.224Z,6.60
2023-03-21T05:33:41.200Z,6.60
2023-03-21T05:37:03.385Z,6.70
2023-03-21T05:40:37.608Z,6.80
2023-03-21T05:44:00.854Z,6.90
2023-03-21T05:47:22.934Z,7.10
2023-03-21T05:50:46.980Z,7.30
2023-03-21T05:54:16.777Z,7.50
2023-03-21T05:57:42.314Z,7.60
2023-03-21T06:01:11.167Z,7.80
2023-03-21T06:04:38.148Z,8.00
2023-03-21T06:08:00.467Z,8.20
2023-03-21T06:11:34.752Z,8.40
2023-03-21T06:15:12.567Z,8.50
2023-03-21T06:18:46.959Z,8.70
2023-03-21T06:22:21.875Z,9.20
2023-03-21T06:25:44.970Z,10.00
2023-03-21T06:29:07.002Z,11.10
2023-03-21T06:32:29.087Z,12.00
2023-03-21T06:35:58.219Z,12.70
2023-03-21T06:39:21.620Z,13.40
2023-03-21T06:42:44.071Z,14.20
2023-03-21T06:46:06.997Z,14.90
2023-03-21T06:49:29.171Z,15.20
2023-03-21T06:52:54.793Z,16.10
2023-03-21T06:56:17.701Z,16.50
2023-03-21T06:59:42.036Z,16.90
2023-03-21T07:03:07.076Z,17.50
2023-03-21T07:06:30.462Z,18.30
2023-03-21T07:09:54.561Z,19.10
2023-03-21T07:13:17.545Z,19.20
2023-03-21T07:16:43.867Z,19.20
2023-03-21T07:20:08.537Z,18.80
2023-03-21T07:23:32.449Z,18.30
2023-03-21T07:26:54.574Z,19.10
2023-03-21T07:30:19.181Z,20.10
2023-03-21T07:33:41.330Z,20.80
2023-03-21T07:37:04.744Z,21.70
2023-03-21T07:40:26.876Z,22.50
2023-03-21T07:43:49.493Z,22.50
2023-03-21T07:47:14.412Z,22.70
2023-03-21T07:50:39.441Z,23.10
2023-03-21T07:54:02.779Z,23.00
2023-03-21T07:57:24.852Z,23.30
2023-03-21T08:00:46.999Z,23.80
2023-03-21T08:04:08.974Z,23.80
2023-03-21T08:07:31.140Z,23.90
2023-03-21T08:10:53.888Z,23.40
2023-03-21T08:14:16.973Z,24.30
2023-03-21T08:17:45.687Z,24.30
2023-03-21T08:21:11.434Z,25.10
2023-03-21T08:24:34.470Z,24.70
2023-03-21T08:27:57.359Z,25.20
2023-03-21T08:31:23.075Z,25.80
2023-03-21T08:34:45.612Z,25.60
2023-03-21T08:38:08.049Z,24.40
2023-03-21T08:41:30.948Z,24.70
2023-03-21T08:44:53.798Z,25.80
2023-03-21T08:48:17.022Z,26.20
2023-03-21T08:51:41.712Z,25.30
2023-03-21T08:55:05.439Z,25.30
2023-03-21T08:58:27.559Z,24.90
2023-03-21T09:01:50.268Z,24.70
2023-03-21T09:05:13.395Z,24.70
2023-03-21T09:08:36.102Z,25.20
2023-03-21T09:11:59.518Z,25.30
2023-03-21T09:15:25.204Z,26.00
2023-03-21T09:18:56.711Z,25.60
2023-03-21T09:22:21.664Z,24.50
2023-03-21T09:25:48.950Z,25.10
2023-03-21T09:29:12.549Z,24.10
2023-03-21T09:32:39.847Z,24.10
2023-03-21T09:36:03.914Z,24.00
2023-03-21T09:39:27.466Z,23.70
2023-03-21T09:43:00.874Z,24.20
2023-03-21T09:46:29.150Z,24.60
2023-03-21T09:50:14.471Z,25.60
2023-03-21T09:53:42.723Z,26.40
2023-03-21T09:57:20.187Z,26.10
2023-03-21T10:00:48.655Z,25.40
2023-03-21T10:04:19.018Z,25.80
2023-03-21T10:07:48.170Z,26.10
2023-03-21T10:11:32.148Z,26.70
2023-03-21T10:15:03.214Z,25.40
2023-03-21T10:18:39.538Z,25.10
2023-03-21T10:22:05.978Z,24.80
2023-03-21T10:25:39.194Z,25.50
2023-03-21T10:29:04.159Z,25.50
2023-03-21T10:32:27.579Z,25.00
2023-03-21T10:35:55.918Z,25.10
2023-03-21T10:39:35.221Z,25.60
2023-03-21T10:43:15.279Z,25.90
2023-03-21T10:46:38.073Z,25.80
2023-03-21T10:50:13.422Z,25.50
2023-03-21T10:53:58.326Z,25.10
2023-03-21T10:57:22.985Z,23.90
2023-03-21T11:00:46.594Z,23.70
2023-03-21T11:04:22.337Z,24.20
2023-03-21T11:07:44.766Z,24.30
2023-03-21T11:11:20.361Z,23.80
2023-03-21T11:14:51.387Z,23.40
2023-03-21T11:18:24.173Z,23.20
2023-03-21T11:21:46.718Z,23.60
2023-03-21T11:25:19.831Z,24.20
2023-03-21T11:28:42.672Z,24.10
2023-03-21T11:32:35.163Z,24.30
2023-03-21T11:36:07.961Z,23.80
2023-03-21T11:39:41.108Z,24.10
2023-03-21T11:43:24.722Z,23.90
2023-03-21T11:46:46.923Z,23.70
2023-03-21T11:50:36.577Z,23.60
2023-03-21T11:54:20.773Z,23.60
2023-03-21T11:58:14.009Z,23.80
2023-03-21T12:02:15.716Z,24.00
2023-03-21T12:05:52.659Z,23.80
2023-03-21T12:09:32.405Z,23.90
2023-03-21T12:13:16.188Z,23.30
2023-03-21T12:17:02.695Z,23.50
2023-03-21T12:20:42.344Z,23.30
2023-03-21T12:24:24.907Z,23.30
2023-03-21T12:28:03.726Z,23.30
2023-03-21T12:31:31.725Z,23.20
2023-03-21T12:35:38.223Z,23.00
2023-03-21T12:39:18.418Z,23.40
2023-03-21T12:43:01.338Z,23.40
2023-03-21T12:46:40.081Z,23.10
2023-03-21T12:50:14.316Z,23.30
2023-03-21T12:53:43.451Z,23.20
2023-03-21T12:57:11.662Z,23.50
2023-03-21T13:00:54.518Z,23.50
2023-03-21T13:04:51.569Z,22.90
2023-03-21T13:08:19.265Z,23.00
2023-03-21T13:11:42.308Z,23.00
2023-03-21T13:15:24.646Z,23.00
2023-03-21T13:19:07.742Z,22.80
2023-03-21T13:22:31.531Z,22.80
2023-03-21T13:25:58.476Z,22.30
2023-03-21T13:29:50.862Z,22.60
2023-03-21T13:33:45.452Z,22.70
2023-03-21T13:37:13.818Z,22.40
2023-03-21T13:40:45.622Z,22.30
2023-03-21T13:44:49.596Z,22.50
2023-03-21T13:48:30.315Z,22.80
2023-03-21T13:51:56.710Z,23.00
2023-03-21T13:55:20.786Z,22.70
2023-03-21T13:58:48.157Z,22.10
2023-03-21T14:02:37.164Z,21.90
2023-03-21T14:06:00.791Z,22.00
2023-03-21T14:09:47.661Z,22.30
2023-03-21T14:13:16.402Z,22.50
2023-03-21T14:16:39.416Z,22.30
2023-03-21T14:20:13.157Z,22.50
2023-03-21T14:23:38.995Z,22.60
2023-03-21T14:27:02.454Z,22.80
2023-03-21T14:30:36.055Z,22.80
2023-03-21T14:34:00.115Z,22.00
2023-03-21T14:37:37.857Z,21.90
2023-03-21T14:41:00.342Z,21.80
2023-03-21T14:44:26.114Z,21.30
2023-03-21T14:47:56.175Z,21.20
2023-03-21T14:51:20.219Z,21.40
2023-03-21T14:54:46.596Z,21.50
2023-03-21T14:58:14.551Z,21.30
2023-03-21T15:01:37.796Z,21.30
2023-03-21T15:05:13.190Z,21.20
2023-03-21T15:08:35.438Z,21.00
2023-03-21T15:11:58.516Z,20.80
2023-03-21T15:15:23.861Z,20.40
2023-03-21T15:18:49.380Z,20.50
2023-03-21T15:22:23.085Z,20.50
2023-03-21T15:25:45.922Z,20.40
2023-03-21T15:29:08.006Z,20.30
2023-03-21T15:32:30.669Z,20.20
2023-03-21T15:35:56.462Z,20.20
2023-03-21T15:39:21.668Z,20.20
2023-03-21T15:42:43.640Z,20.20
2023-03-21T15:46:18.317Z,20.10
2023-03-21T15:49:43.984Z,20.10
2023-03-21T15:53:13.173Z,20.10
2023-03-21T15:56:36.246Z,20.00
2023-03-21T16:00:21.095Z,20.00
2023-03-21T16:03:49.401Z,20.10
2023-03-21T16:07:17.168Z,20.00
2023-03-21T16:10:39.455Z,19.90
2023-03-21T16:14:01.689Z,19.80
2023-03-21T16:17:33.851Z,19.70
2023-03-21T16:20:57.602Z,19.50
2023-03-21T16:24:19.608Z,19.20
2023-03-21T16:27:42.237Z,19.30
2023-03-21T16:31:04.394Z,19.30
2023-03-21T16:34:27.208Z,19.10
2023-03-21T16:37:49.688Z,19.10
2023-03-21T16:41:13.447Z,19.10
2023-03-21T16:44:39.151Z,19.00
2023-03-21T16:48:01.329Z,18.90
2023-03-21T16:51:29.367Z,18.80
2023-03-21T16:54:51.347Z,18.70
2023-03-21T16:58:15.908Z,18.60
2023-03-21T17:01:40.016Z,18.40
2023-03-21T17:05:03.739Z,18.20
2023-03-21T17:08:28.299Z,17.90
2023-03-21T17:11:50.394Z,17.60
2023-03-21T17:15:13.187Z,17.50
2023-03-21T17:18:35.710Z,17.30
2023-03-21T17:21:57.772Z,17.10
2023-03-21T17:25:20.649Z,16.90
2023-03-21T17:28:42.840Z,16.70
2023-03-21T17:32:04.982Z,16.50
2023-03-21T17:35:28.366Z,16.30
2023-03-21T17:38:52.881Z,16.10
2023-03-21T17:42:16.005Z,15.90
2023-03-21T17:45:38.029Z,15.80
2023-03-21T17:48:59.972Z,15.60
2023-03-21T17:52:23.273Z,15.50
2023-03-21T17:55:46.204Z,15.40
2023-03-21T17:59:12.721Z,15.30
2023-03-21T18:02:34.744Z,15.10
2023-03-21T18:05:57.350Z,15.10
2023-03-21T18:09:21.737Z,15.00
2023-03-21T18:12:44.108Z,14.90
2023-03-21T18:16:07.022Z,14.80
2023-03-21T18:19:29.569Z,14.70
2023-03-21T18:22:52.184Z,14.60
2023-03-21T18:26:18.136Z,14.60
2023-03-21T18:33:22.908Z,14.40
2023-03-21T18:36:45.065Z,14.40
2023-03-21T18:40:10.787Z,14.30
2023-03-21T18:47:15.793Z,14.20
2023-03-21T18:50:38.254Z,14.10
2023-03-21T18:54:00.889Z,14.00
2023-03-21T18:57:39.378Z,14.00
2023-03-21T19:01:04.389Z,13.80
2023-03-21T19:04:30.259Z,13.80
2023-03-21T19:07:53.073Z,13.70
2023-03-21T19:11:16.026Z,13.60
2023-03-21T19:14:38.157Z,13.60
2023-03-21T19:18:37.305Z,13.50
2023-03-21T19:21:42.247Z,13.50
2023-03-21T19:25:05.595Z,13.40
2023-03-21T19:28:28.114Z,13.40
2023-03-21T19:31:51.217Z,13.30
2023-03-21T19:35:14.289Z,13.30
2023-03-21T19:38:36.904Z,13.30
2023-03-21T19:42:15.050Z,13.30
2023-03-21T19:45:39.713Z,13.20
2023-03-21T19:49:04.374Z,13.10
2023-03-21T19:52:26.590Z,13.10
2023-03-21T19:55:54.181Z,12.90
2023-03-21T19:59:17.472Z,12.90
2023-03-21T20:02:39.868Z,12.80
2023-03-21T20:06:04.917Z,12.80
2023-03-21T20:13:08.772Z,12.80
2023-03-21T20:16:35.254Z,12.70
2023-03-21T20:20:01.570Z,12.70
2023-03-21T20:23:23.598Z,12.70
2023-03-21T20:26:45.936Z,12.70
2023-03-21T20:30:14.962Z,12.70
2023-03-21T20:33:37.167Z,12.70
2023-03-21T20:36:59.425Z,12.70
2023-03-21T20:40:21.672Z,12.60
2023-03-21T20:44:34.697Z,12.60
2023-03-21T20:47:26.507Z,12.60
2023-03-21T20:50:50.853Z,12.60
2023-03-21T20:54:12.851Z,12.70
2023-03-21T20:57:38.601Z,12.60
2023-03-21T21:01:39.682Z,12.50
2023-03-21T21:08:50.364Z,12.50
2023-03-21T21:12:15.093Z,12.40
2023-03-21T21:15:37.368Z,12.30
2023-03-21T21:18:59.547Z,12.30
2023-03-21T21:22:21.579Z,12.20
2023-03-21T21:25:43.576Z,12.10
2023-03-21T21:29:07.079Z,11.90
2023-03-21T21:32:29.815Z,11.90
2023-03-21T21:35:55.055Z,11.90
2023-03-21T21:39:17.891Z,11.80
2023-03-21T21:42:44.707Z,11.80
2023-03-21T21:46:13.264Z,11.80
2023-03-21T21:49:43.154Z,11.80
2023-03-21T21:53:10.471Z,11.90
2023-03-21T21:56:32.729Z,11.80
2023-03-21T21:59:54.684Z,11.70
2023-03-21T22:03:22.042Z,11.70
2023-03-21T22:06:44.535Z,11.70
2023-03-21T22:10:06.911Z,11.60
2023-03-21T22:13:29.136Z,11.60
2023-03-21T22:16:51.817Z,11.50
2023-03-21T22:20:16.190Z,11.50
2023-03-21T22:23:38.248Z,11.50
2023-03-21T22:27:00.331Z,11.40
2023-03-21T22:30:22.340Z,11.30
2023-03-21T22:33:45.098Z,11.30
2023-03-21T22:37:07.084Z,11.30
2023-03-21T22:40:29.157Z,11.20
2023-03-21T22:43:51.307Z,11.20
2023-03-21T22:47:13.281Z,11.20
2023-03-21T22:50:35.271Z,11.20
2023-03-21T22:53:57.301Z,11.10
2023-03-21T22:57:22.252Z,11.10
2023-03-21T23:00:44.317Z,11.00
2023-03-21T23:04:06.534Z,11.00
2023-03-21T23:07:28.550Z,11.00
2023-03-21T23:10:50.712Z,10.90
2023-03-21T23:14:15.294Z,10.90
2023-03-21T23:17:38.042Z,10.90
2023-03-21T23:21:00.674Z,11.00
2023-03-21T23:24:23.799Z,11.00
2023-03-21T23:27:45.840Z,10.90
2023-03-21T23:31:10.351Z,10.90
2023-03-21T23:34:32.763Z,10.90
2023-03-21T23:37:54.762Z,10.90
2023-03-21T23:41:19.797Z,10.90
2023-03-21T23:44:41.793Z,10.90
2023-03-21T23:48:03.934Z,10.90
2023-03-21T23:51:26.061Z,10.90
2023-03-21T23:54:48.105Z,10.90
2023-03-21T23:58:10.839Z,10.90
